sensor_id;sensor_type;location;lat;lon;timestamp;P1;durP1;ratioP1;P2;durP2;ratioP2
13951;SDS011;39535;52.192;9.886;2023-06-10T00:00:09;5.00;;;3.50;;
13951;SDS011;39535;52.192;9.886;2023-06-10T00:02:38;6.10;;;3.60;;
13951;SDS011;39535;52.192;9.886;2023-06-10T00:05:05;5.00;;;3.43;;
13951;SDS011;39535;52.192;9.886;2023-06-10T00:07:32;3.87;;;3.17;;
13951;SDS011;39535;52.192;9.886;2023-06-10T00:10:01;3.80;;;3.50;;
13951;SDS011;39535;52.192;9.886;2023-06-10T00:12:30;3.30;;;3.00;;
13951;SDS011;39535;52.192;9.886;2023-06-10T00:15:02;3.70;;;3.33;;
13951;SDS011;39535;52.192;9.886;2023-06-10T00:17:30;7.20;;;3.90;;
13951;SDS011;39535;52.192;9.886;2023-06-10T00:19:57;4.30;;;3.90;;
13951;SDS011;39535;52.192;9.886;2023-06-10T00:22:24;3.40;;;3.10;;
13951;SDS011;39535;52.192;9.886;2023-06-10T00:24:54;3.63;;;3.33;;
13951;SDS011;39535;52.192;9.886;2023-06-10T00:27:20;3.23;;;2.93;;
13951;SDS011;39535;52.192;9.886;2023-06-10T00:29:47;5.53;;;3.27;;
13951;SDS011;39535;52.192;9.886;2023-06-10T00:32:13;6.00;;;3.50;;
13951;SDS011;39535;52.192;9.886;2023-06-10T00:34:41;5.17;;;3.13;;
13951;SDS011;39535;52.192;9.886;2023-06-10T00:37:07;6.40;;;3.50;;
13951;SDS011;39535;52.192;9.886;2023-06-10T00:39:34;3.97;;;3.57;;
13951;SDS011;39535;52.192;9.886;2023-06-10T00:42:00;3.67;;;3.37;;
13951;SDS011;39535;52.192;9.886;2023-06-10T00:44:27;4.10;;;3.80;;
13951;SDS011;39535;52.192;9.886;2023-06-10T00:46:53;4.07;;;3.67;;
13951;SDS011;39535;52.192;9.886;2023-06-10T00:49:20;5.60;;;3.10;;
13951;SDS011;39535;52.192;9.886;2023-06-10T00:51:48;4.80;;;3.67;;
13951;SDS011;39535;52.192;9.886;2023-06-10T00:54:15;4.40;;;3.67;;
13951;SDS011;39535;52.192;9.886;2023-06-10T00:56:42;5.77;;;3.77;;
13951;SDS011;39535;52.192;9.886;2023-06-10T00:59:09;4.20;;;3.40;;
13951;SDS011;39535;52.192;9.886;2023-06-10T01:01:35;3.60;;;3.30;;
13951;SDS011;39535;52.192;9.886;2023-06-10T01:04:04;3.33;;;3.00;;
13951;SDS011;39535;52.192;9.886;2023-06-10T01:06:32;5.03;;;4.23;;
13951;SDS011;39535;52.192;9.886;2023-06-10T01:09:06;3.67;;;3.37;;
13951;SDS011;39535;52.192;9.886;2023-06-10T01:11:41;3.60;;;3.30;;
13951;SDS011;39535;52.192;9.886;2023-06-10T01:14:13;3.43;;;3.13;;
13951;SDS011;39535;52.192;9.886;2023-06-10T01:16:40;7.70;;;3.43;;
13951;SDS011;39535;52.192;9.886;2023-06-10T01:19:07;4.17;;;3.10;;
13951;SDS011;39535;52.192;9.886;2023-06-10T01:21:36;3.53;;;3.30;;
13951;SDS011;39535;52.192;9.886;2023-06-10T01:24:04;4.57;;;3.60;;
13951;SDS011;39535;52.192;9.886;2023-06-10T01:26:33;3.83;;;3.53;;
13951;SDS011;39535;52.192;9.886;2023-06-10T01:29:03;4.53;;;4.13;;
13951;SDS011;39535;52.192;9.886;2023-06-10T01:31:35;4.33;;;3.60;;
13951;SDS011;39535;52.192;9.886;2023-06-10T01:34:07;3.93;;;3.53;;
13951;SDS011;39535;52.192;9.886;2023-06-10T01:36:37;4.93;;;3.60;;
13951;SDS011;39535;52.192;9.886;2023-06-10T01:39:06;3.83;;;3.43;;
13951;SDS011;39535;52.192;9.886;2023-06-10T01:41:34;3.80;;;3.50;;
13951;SDS011;39535;52.192;9.886;2023-06-10T01:44:01;3.57;;;3.27;;
13951;SDS011;39535;52.192;9.886;2023-06-10T01:46:27;6.07;;;3.93;;
13951;SDS011;39535;52.192;9.886;2023-06-10T01:48:54;4.37;;;3.60;;
13951;SDS011;39535;52.192;9.886;2023-06-10T01:51:20;4.27;;;3.83;;
13951;SDS011;39535;52.192;9.886;2023-06-10T01:53:48;4.77;;;3.57;;
13951;SDS011;39535;52.192;9.886;2023-06-10T01:56:14;4.60;;;3.60;;
13951;SDS011;39535;52.192;9.886;2023-06-10T01:58:44;4.10;;;3.70;;
13951;SDS011;39535;52.192;9.886;2023-06-10T02:01:10;4.47;;;3.80;;
13951;SDS011;39535;52.192;9.886;2023-06-10T02:03:36;5.53;;;4.17;;
13951;SDS011;39535;52.192;9.886;2023-06-10T02:06:03;4.53;;;4.10;;
13951;SDS011;39535;52.192;9.886;2023-06-10T02:08:30;4.53;;;3.60;;
13951;SDS011;39535;52.192;9.886;2023-06-10T02:10:57;4.87;;;4.00;;
13951;SDS011;39535;52.192;9.886;2023-06-10T02:13:24;6.43;;;3.90;;
13951;SDS011;39535;52.192;9.886;2023-06-10T02:15:50;4.90;;;4.10;;
13951;SDS011;39535;52.192;9.886;2023-06-10T02:18:18;6.37;;;3.90;;
13951;SDS011;39535;52.192;9.886;2023-06-10T02:20:45;4.47;;;3.70;;
13951;SDS011;39535;52.192;9.886;2023-06-10T02:23:12;4.50;;;4.10;;
13951;SDS011;39535;52.192;9.886;2023-06-10T02:25:38;4.37;;;3.97;;
13951;SDS011;39535;52.192;9.886;2023-06-10T02:28:06;4.10;;;3.70;;
13951;SDS011;39535;52.192;9.886;2023-06-10T02:30:32;4.80;;;3.80;;
13951;SDS011;39535;52.192;9.886;2023-06-10T02:32:59;7.07;;;4.10;;
13951;SDS011;39535;52.192;9.886;2023-06-10T02:35:26;5.30;;;4.00;;
13951;SDS011;39535;52.192;9.886;2023-06-10T02:37:52;5.13;;;4.30;;
13951;SDS011;39535;52.192;9.886;2023-06-10T02:40:18;5.67;;;4.03;;
13951;SDS011;39535;52.192;9.886;2023-06-10T02:42:45;4.77;;;4.27;;
13951;SDS011;39535;52.192;9.886;2023-06-10T02:45:13;5.50;;;4.57;;
13951;SDS011;39535;52.192;9.886;2023-06-10T02:47:39;8.10;;;4.43;;
13951;SDS011;39535;52.192;9.886;2023-06-10T02:50:06;4.97;;;4.43;;
13951;SDS011;39535;52.192;9.886;2023-06-10T02:52:32;6.03;;;4.40;;
13951;SDS011;39535;52.192;9.886;2023-06-10T02:54:59;4.60;;;4.20;;
13951;SDS011;39535;52.192;9.886;2023-06-10T02:57:25;5.10;;;4.50;;
13951;SDS011;39535;52.192;9.886;2023-06-10T02:59:51;6.87;;;4.60;;
13951;SDS011;39535;52.192;9.886;2023-06-10T03:02:19;5.70;;;4.13;;
13951;SDS011;39535;52.192;9.886;2023-06-10T03:04:47;4.77;;;4.27;;
13951;SDS011;39535;52.192;9.886;2023-06-10T03:07:15;4.70;;;4.00;;
13951;SDS011;39535;52.192;9.886;2023-06-10T03:09:41;5.73;;;4.60;;
13951;SDS011;39535;52.192;9.886;2023-06-10T03:12:08;4.80;;;4.30;;
13951;SDS011;39535;52.192;9.886;2023-06-10T03:14:35;5.23;;;4.30;;
13951;SDS011;39535;52.192;9.886;2023-06-10T03:17:03;5.50;;;4.53;;
13951;SDS011;39535;52.192;9.886;2023-06-10T03:19:32;5.70;;;4.60;;
13951;SDS011;39535;52.192;9.886;2023-06-10T03:22:07;5.07;;;4.33;;
13951;SDS011;39535;52.192;9.886;2023-06-10T03:24:34;5.07;;;4.67;;
13951;SDS011;39535;52.192;9.886;2023-06-10T03:27:01;5.90;;;4.97;;
13951;SDS011;39535;52.192;9.886;2023-06-10T03:29:29;5.23;;;4.83;;
13951;SDS011;39535;52.192;9.886;2023-06-10T03:31:56;5.20;;;4.70;;
13951;SDS011;39535;52.192;9.886;2023-06-10T03:34:22;5.20;;;4.70;;
13951;SDS011;39535;52.192;9.886;2023-06-10T03:36:50;5.07;;;4.67;;
13951;SDS011;39535;52.192;9.886;2023-06-10T03:39:17;5.90;;;4.73;;
13951;SDS011;39535;52.192;9.886;2023-06-10T03:41:43;5.40;;;4.90;;
13951;SDS011;39535;52.192;9.886;2023-06-10T03:44:10;5.53;;;4.73;;
13951;SDS011;39535;52.192;9.886;2023-06-10T03:46:36;6.00;;;5.43;;
13951;SDS011;39535;52.192;9.886;2023-06-10T03:49:02;5.57;;;4.90;;
13951;SDS011;39535;52.192;9.886;2023-06-10T03:51:29;5.60;;;5.10;;
13951;SDS011;39535;52.192;9.886;2023-06-10T03:53:57;5.87;;;4.97;;
13951;SDS011;39535;52.192;9.886;2023-06-10T03:56:24;5.90;;;5.07;;
13951;SDS011;39535;52.192;9.886;2023-06-10T03:58:50;5.97;;;5.43;;
13951;SDS011;39535;52.192;9.886;2023-06-10T04:01:17;6.07;;;5.17;;
13951;SDS011;39535;52.192;9.886;2023-06-10T04:03:45;8.40;;;5.73;;
13951;SDS011;39535;52.192;9.886;2023-06-10T04:06:13;9.13;;;5.67;;
13951;SDS011;39535;52.192;9.886;2023-06-10T04:08:40;6.87;;;6.37;;
13951;SDS011;39535;52.192;9.886;2023-06-10T04:11:07;5.77;;;5.17;;
13951;SDS011;39535;52.192;9.886;2023-06-10T04:13:34;6.07;;;5.10;;
13951;SDS011;39535;52.192;9.886;2023-06-10T04:16:01;5.70;;;5.10;;
13951;SDS011;39535;52.192;9.886;2023-06-10T04:18:28;5.60;;;5.00;;
13951;SDS011;39535;52.192;9.886;2023-06-10T04:20:54;5.97;;;5.20;;
13951;SDS011;39535;52.192;9.886;2023-06-10T04:23:21;5.10;;;4.60;;
13951;SDS011;39535;52.192;9.886;2023-06-10T04:25:48;5.30;;;4.80;;
13951;SDS011;39535;52.192;9.886;2023-06-10T04:28:15;6.00;;;5.43;;
13951;SDS011;39535;52.192;9.886;2023-06-10T04:30:42;6.03;;;5.43;;
13951;SDS011;39535;52.192;9.886;2023-06-10T04:33:09;5.60;;;5.10;;
13951;SDS011;39535;52.192;9.886;2023-06-10T04:35:36;6.20;;;5.63;;
13951;SDS011;39535;52.192;9.886;2023-06-10T04:38:02;6.40;;;5.80;;
13951;SDS011;39535;52.192;9.886;2023-06-10T04:40:29;5.80;;;5.30;;
13951;SDS011;39535;52.192;9.886;2023-06-10T04:42:55;8.07;;;5.60;;
13951;SDS011;39535;52.192;9.886;2023-06-10T04:45:23;6.63;;;5.90;;
13951;SDS011;39535;52.192;9.886;2023-06-10T04:47:49;6.23;;;5.67;;
13951;SDS011;39535;52.192;9.886;2023-06-10T04:50:16;6.53;;;5.93;;
13951;SDS011;39535;52.192;9.886;2023-06-10T04:52:43;6.27;;;5.70;;
13951;SDS011;39535;52.192;9.886;2023-06-10T04:55:09;8.57;;;5.87;;
13951;SDS011;39535;52.192;9.886;2023-06-10T04:57:35;6.50;;;5.90;;
13951;SDS011;39535;52.192;9.886;2023-06-10T05:00:02;6.97;;;6.37;;
13951;SDS011;39535;52.192;9.886;2023-06-10T05:02:32;9.07;;;5.70;;
13951;SDS011;39535;52.192;9.886;2023-06-10T05:04:58;8.83;;;5.50;;
13951;SDS011;39535;52.192;9.886;2023-06-10T05:07:25;6.40;;;5.80;;
13951;SDS011;39535;52.192;9.886;2023-06-10T05:09:51;6.00;;;5.10;;
13951;SDS011;39535;52.192;9.886;2023-06-10T05:12:18;7.43;;;6.03;;
13951;SDS011;39535;52.192;9.886;2023-06-10T05:14:44;6.37;;;5.73;;
13951;SDS011;39535;52.192;9.886;2023-06-10T05:17:11;6.10;;;5.50;;
13951;SDS011;39535;52.192;9.886;2023-06-10T05:19:39;7.77;;;5.73;;
13951;SDS011;39535;52.192;9.886;2023-06-10T05:22:06;6.97;;;6.07;;
13951;SDS011;39535;52.192;9.886;2023-06-10T05:24:32;6.73;;;6.07;;
13951;SDS011;39535;52.192;9.886;2023-06-10T05:26:59;6.80;;;5.67;;
13951;SDS011;39535;52.192;9.886;2023-06-10T05:29:25;6.70;;;6.03;;
13951;SDS011;39535;52.192;9.886;2023-06-10T05:31:52;7.70;;;6.00;;
13951;SDS011;39535;52.192;9.886;2023-06-10T05:34:18;8.73;;;6.23;;
13951;SDS011;39535;52.192;9.886;2023-06-10T05:36:46;6.77;;;6.17;;
13951;SDS011;39535;52.192;9.886;2023-06-10T05:39:13;6.47;;;5.97;;
13951;SDS011;39535;52.192;9.886;2023-06-10T05:41:39;7.80;;;6.57;;
13951;SDS011;39535;52.192;9.886;2023-06-10T05:44:06;7.30;;;6.70;;
13951;SDS011;39535;52.192;9.886;2023-06-10T05:46:32;6.90;;;5.97;;
13951;SDS011;39535;52.192;9.886;2023-06-10T05:48:58;7.23;;;6.60;;
13951;SDS011;39535;52.192;9.886;2023-06-10T05:51:25;6.63;;;6.10;;
13951;SDS011;39535;52.192;9.886;2023-06-10T05:53:53;6.93;;;6.20;;
13951;SDS011;39535;52.192;9.886;2023-06-10T05:56:20;7.77;;;6.17;;
13951;SDS011;39535;52.192;9.886;2023-06-10T05:58:47;6.90;;;6.40;;
13951;SDS011;39535;52.192;9.886;2023-06-10T06:01:13;7.03;;;6.40;;
13951;SDS011;39535;52.192;9.886;2023-06-10T06:03:40;7.73;;;6.67;;
13951;SDS011;39535;52.192;9.886;2023-06-10T06:06:06;7.33;;;6.53;;
13951;SDS011;39535;52.192;9.886;2023-06-10T06:08:33;7.37;;;6.40;;
13951;SDS011;39535;52.192;9.886;2023-06-10T06:11:00;7.40;;;6.60;;
13951;SDS011;39535;52.192;9.886;2023-06-10T06:13:26;7.03;;;6.07;;
13951;SDS011;39535;52.192;9.886;2023-06-10T06:15:53;7.70;;;6.30;;
13951;SDS011;39535;52.192;9.886;2023-06-10T06:18:19;6.97;;;6.33;;
13951;SDS011;39535;52.192;9.886;2023-06-10T06:20:45;7.47;;;5.90;;
13951;SDS011;39535;52.192;9.886;2023-06-10T06:23:12;7.97;;;7.00;;
13951;SDS011;39535;52.192;9.886;2023-06-10T06:25:38;8.77;;;6.77;;
13951;SDS011;39535;52.192;9.886;2023-06-10T06:28:06;7.83;;;7.07;;
13951;SDS011;39535;52.192;9.886;2023-06-10T06:30:34;8.17;;;6.13;;
13951;SDS011;39535;52.192;9.886;2023-06-10T06:33:00;8.30;;;7.33;;
13951;SDS011;39535;52.192;9.886;2023-06-10T06:35:27;7.60;;;6.90;;
13951;SDS011;39535;52.192;9.886;2023-06-10T06:37:53;7.37;;;6.53;;
13951;SDS011;39535;52.192;9.886;2023-06-10T06:40:19;7.77;;;6.43;;
13951;SDS011;39535;52.192;9.886;2023-06-10T06:42:46;7.50;;;6.80;;
13951;SDS011;39535;52.192;9.886;2023-06-10T06:45:13;8.57;;;6.87;;
13951;SDS011;39535;52.192;9.886;2023-06-10T06:47:40;6.47;;;5.90;;
13951;SDS011;39535;52.192;9.886;2023-06-10T06:50:06;7.57;;;6.77;;
13951;SDS011;39535;52.192;9.886;2023-06-10T06:52:33;7.37;;;6.20;;
13951;SDS011;39535;52.192;9.886;2023-06-10T06:54:59;7.87;;;6.80;;
13951;SDS011;39535;52.192;9.886;2023-06-10T06:57:25;7.00;;;6.23;;
13951;SDS011;39535;52.192;9.886;2023-06-10T06:59:52;7.00;;;6.40;;
13951;SDS011;39535;52.192;9.886;2023-06-10T07:02:19;7.00;;;6.27;;
13951;SDS011;39535;52.192;9.886;2023-06-10T07:04:46;7.10;;;6.40;;
13951;SDS011;39535;52.192;9.886;2023-06-10T07:07:13;7.53;;;6.53;;
13951;SDS011;39535;52.192;9.886;2023-06-10T07:09:40;7.07;;;6.47;;
13951;SDS011;39535;52.192;9.886;2023-06-10T07:12:07;7.37;;;6.67;;
13951;SDS011;39535;52.192;9.886;2023-06-10T07:14:34;7.43;;;6.73;;
13951;SDS011;39535;52.192;9.886;2023-06-10T07:17:00;7.40;;;6.70;;
13951;SDS011;39535;52.192;9.886;2023-06-10T07:19:28;6.97;;;6.40;;
13951;SDS011;39535;52.192;9.886;2023-06-10T07:21:54;8.37;;;7.47;;
13951;SDS011;39535;52.192;9.886;2023-06-10T07:24:21;9.80;;;7.20;;
13951;SDS011;39535;52.192;9.886;2023-06-10T07:26:47;7.10;;;6.50;;
13951;SDS011;39535;52.192;9.886;2023-06-10T07:29:13;7.50;;;6.80;;
13951;SDS011;39535;52.192;9.886;2023-06-10T07:31:40;9.10;;;7.27;;
13951;SDS011;39535;52.192;9.886;2023-06-10T07:34:10;9.40;;;7.40;;
13951;SDS011;39535;52.192;9.886;2023-06-10T07:36:37;7.60;;;6.87;;
13951;SDS011;39535;52.192;9.886;2023-06-10T07:39:04;8.07;;;7.27;;
13951;SDS011;39535;52.192;9.886;2023-06-10T07:41:31;8.47;;;7.43;;
13951;SDS011;39535;52.192;9.886;2023-06-10T07:43:57;9.27;;;6.87;;
13951;SDS011;39535;52.192;9.886;2023-06-10T07:46:23;7.40;;;6.73;;
13951;SDS011;39535;52.192;9.886;2023-06-10T07:48:52;9.30;;;7.17;;
13951;SDS011;39535;52.192;9.886;2023-06-10T07:51:19;7.77;;;7.07;;
13951;SDS011;39535;52.192;9.886;2023-06-10T07:53:46;7.13;;;6.53;;
13951;SDS011;39535;52.192;9.886;2023-06-10T07:56:13;8.00;;;7.10;;
13951;SDS011;39535;52.192;9.886;2023-06-10T07:58:39;7.57;;;6.90;;
13951;SDS011;39535;52.192;9.886;2023-06-10T08:01:05;7.63;;;7.00;;
13951;SDS011;39535;52.192;9.886;2023-06-10T08:03:32;7.27;;;6.57;;
13951;SDS011;39535;52.192;9.886;2023-06-10T08:05:58;8.70;;;7.30;;
13951;SDS011;39535;52.192;9.886;2023-06-10T08:08:25;7.57;;;6.97;;
13951;SDS011;39535;52.192;9.886;2023-06-10T08:10:52;9.40;;;7.20;;
13951;SDS011;39535;52.192;9.886;2023-06-10T08:13:19;7.80;;;6.97;;
13951;SDS011;39535;52.192;9.886;2023-06-10T08:15:45;8.90;;;7.97;;
13951;SDS011;39535;52.192;9.886;2023-06-10T08:18:12;8.17;;;6.83;;
13951;SDS011;39535;52.192;9.886;2023-06-10T08:20:39;8.13;;;7.33;;
13951;SDS011;39535;52.192;9.886;2023-06-10T08:23:05;9.67;;;6.77;;
13951;SDS011;39535;52.192;9.886;2023-06-10T08:25:31;9.10;;;8.20;;
13951;SDS011;39535;52.192;9.886;2023-06-10T08:27:59;8.57;;;7.63;;
13951;SDS011;39535;52.192;9.886;2023-06-10T08:30:25;8.10;;;6.87;;
13951;SDS011;39535;52.192;9.886;2023-06-10T08:32:52;8.33;;;7.30;;
13951;SDS011;39535;52.192;9.886;2023-06-10T08:35:18;7.80;;;7.00;;
13951;SDS011;39535;52.192;9.886;2023-06-10T08:37:44;7.33;;;6.73;;
13951;SDS011;39535;52.192;9.886;2023-06-10T08:40:11;7.07;;;6.37;;
13951;SDS011;39535;52.192;9.886;2023-06-10T08:42:39;7.30;;;6.60;;
13951;SDS011;39535;52.192;9.886;2023-06-10T08:45:12;10.50;;;7.53;;
13951;SDS011;39535;52.192;9.886;2023-06-10T08:47:42;7.40;;;6.70;;
13951;SDS011;39535;52.192;9.886;2023-06-10T08:50:11;7.17;;;6.53;;
13951;SDS011;39535;52.192;9.886;2023-06-10T08:52:37;7.50;;;6.73;;
13951;SDS011;39535;52.192;9.886;2023-06-10T08:55:10;7.57;;;6.93;;
13951;SDS011;39535;52.192;9.886;2023-06-10T08:57:38;7.67;;;6.97;;
13951;SDS011;39535;52.192;9.886;2023-06-10T09:00:06;7.60;;;6.97;;
13951;SDS011;39535;52.192;9.886;2023-06-10T09:02:35;8.43;;;7.27;;
13951;SDS011;39535;52.192;9.886;2023-06-10T09:05:02;7.93;;;7.23;;
13951;SDS011;39535;52.192;9.886;2023-06-10T09:07:29;7.97;;;7.27;;
13951;SDS011;39535;52.192;9.886;2023-06-10T09:09:59;8.23;;;7.37;;
13951;SDS011;39535;52.192;9.886;2023-06-10T09:12:28;7.37;;;6.80;;
13951;SDS011;39535;52.192;9.886;2023-06-10T09:14:54;7.30;;;6.70;;
13951;SDS011;39535;52.192;9.886;2023-06-10T09:17:21;9.70;;;7.43;;
13951;SDS011;39535;52.192;9.886;2023-06-10T09:19:49;6.83;;;6.23;;
13951;SDS011;39535;52.192;9.886;2023-06-10T09:22:18;6.70;;;6.20;;
13951;SDS011;39535;52.192;9.886;2023-06-10T09:24:46;7.73;;;6.97;;
13951;SDS011;39535;52.192;9.886;2023-06-10T09:27:12;8.10;;;7.20;;
13951;SDS011;39535;52.192;9.886;2023-06-10T09:29:45;9.33;;;6.73;;
13951;SDS011;39535;52.192;9.886;2023-06-10T09:32:13;7.93;;;7.13;;
13951;SDS011;39535;52.192;9.886;2023-06-10T09:34:39;7.67;;;6.70;;
13951;SDS011;39535;52.192;9.886;2023-06-10T09:37:07;7.90;;;7.07;;
13951;SDS011;39535;52.192;9.886;2023-06-10T09:39:37;7.13;;;6.47;;
13951;SDS011;39535;52.192;9.886;2023-06-10T09:42:04;10.10;;;6.57;;
13951;SDS011;39535;52.192;9.886;2023-06-10T09:44:41;7.40;;;6.57;;
13951;SDS011;39535;52.192;9.886;2023-06-10T09:47:07;7.53;;;6.70;;
13951;SDS011;39535;52.192;9.886;2023-06-10T09:49:34;7.77;;;7.07;;
13951;SDS011;39535;52.192;9.886;2023-06-10T09:52:04;8.40;;;6.87;;
13951;SDS011;39535;52.192;9.886;2023-06-10T09:54:32;7.70;;;6.90;;
13951;SDS011;39535;52.192;9.886;2023-06-10T09:56:59;8.53;;;7.30;;
13951;SDS011;39535;52.192;9.886;2023-06-10T09:59:33;7.27;;;6.33;;
13951;SDS011;39535;52.192;9.886;2023-06-10T10:02:00;9.07;;;6.70;;
13951;SDS011;39535;52.192;9.886;2023-06-10T10:04:27;7.37;;;6.63;;
13951;SDS011;39535;52.192;9.886;2023-06-10T10:06:54;7.43;;;6.77;;
13951;SDS011;39535;52.192;9.886;2023-06-10T10:09:20;7.37;;;6.67;;
13951;SDS011;39535;52.192;9.886;2023-06-10T10:11:48;7.37;;;6.67;;
13951;SDS011;39535;52.192;9.886;2023-06-10T10:14:15;7.33;;;6.63;;
13951;SDS011;39535;52.192;9.886;2023-06-10T10:16:42;6.80;;;6.20;;
13951;SDS011;39535;52.192;9.886;2023-06-10T10:19:10;7.80;;;7.00;;
13951;SDS011;39535;52.192;9.886;2023-06-10T10:21:43;7.70;;;6.90;;
13951;SDS011;39535;52.192;9.886;2023-06-10T10:24:22;7.00;;;6.30;;
13951;SDS011;39535;52.192;9.886;2023-06-10T10:26:53;7.63;;;6.97;;
13951;SDS011;39535;52.192;9.886;2023-06-10T10:29:28;7.63;;;6.67;;
13951;SDS011;39535;52.192;9.886;2023-06-10T10:31:57;7.67;;;6.87;;
13951;SDS011;39535;52.192;9.886;2023-06-10T10:34:29;7.80;;;7.10;;
13951;SDS011;39535;52.192;9.886;2023-06-10T10:37:00;7.50;;;6.90;;
13951;SDS011;39535;52.192;9.886;2023-06-10T10:39:28;7.40;;;6.87;;
13951;SDS011;39535;52.192;9.886;2023-06-10T10:41:56;6.50;;;6.00;;
13951;SDS011;39535;52.192;9.886;2023-06-10T10:44:23;6.73;;;6.07;;
13951;SDS011;39535;52.192;9.886;2023-06-10T10:46:50;6.93;;;6.33;;
13951;SDS011;39535;52.192;9.886;2023-06-10T10:49:19;8.20;;;6.40;;
13951;SDS011;39535;52.192;9.886;2023-06-10T10:51:54;7.00;;;6.40;;
13951;SDS011;39535;52.192;9.886;2023-06-10T10:54:27;7.67;;;6.97;;
13951;SDS011;39535;52.192;9.886;2023-06-10T10:57:15;7.33;;;6.73;;
13951;SDS011;39535;52.192;9.886;2023-06-10T10:59:43;7.37;;;6.77;;
13951;SDS011;39535;52.192;9.886;2023-06-10T11:02:10;8.27;;;7.00;;
13951;SDS011;39535;52.192;9.886;2023-06-10T11:04:44;6.47;;;5.97;;
13951;SDS011;39535;52.192;9.886;2023-06-10T11:07:12;7.47;;;6.77;;
13951;SDS011;39535;52.192;9.886;2023-06-10T11:09:40;7.17;;;6.57;;
13951;SDS011;39535;52.192;9.886;2023-06-10T11:12:25;7.30;;;6.80;;
13951;SDS011;39535;52.192;9.886;2023-06-10T11:14:53;7.57;;;6.77;;
13951;SDS011;39535;52.192;9.886;2023-06-10T11:17:21;7.27;;;6.67;;
13951;SDS011;39535;52.192;9.886;2023-06-10T11:19:48;7.33;;;6.67;;
13951;SDS011;39535;52.192;9.886;2023-06-10T11:22:16;7.43;;;6.83;;
13951;SDS011;39535;52.192;9.886;2023-06-10T11:24:46;7.47;;;6.87;;
13951;SDS011;39535;52.192;9.886;2023-06-10T11:27:17;8.40;;;6.90;;
13951;SDS011;39535;52.192;9.886;2023-06-10T11:29:56;7.50;;;6.90;;
13951;SDS011;39535;52.192;9.886;2023-06-10T11:32:24;9.17;;;6.97;;
13951;SDS011;39535;52.192;9.886;2023-06-10T11:34:56;8.30;;;6.90;;
13951;SDS011;39535;52.192;9.886;2023-06-10T11:37:23;7.80;;;7.27;;
13951;SDS011;39535;52.192;9.886;2023-06-10T11:39:51;7.80;;;7.20;;
13951;SDS011;39535;52.192;9.886;2023-06-10T11:42:18;7.83;;;7.33;;
13951;SDS011;39535;52.192;9.886;2023-06-10T11:44:47;8.00;;;7.47;;
13951;SDS011;39535;52.192;9.886;2023-06-10T11:47:16;6.97;;;6.47;;
13951;SDS011;39535;52.192;9.886;2023-06-10T11:49:43;7.60;;;7.10;;
13951;SDS011;39535;52.192;9.886;2023-06-10T11:52:09;8.20;;;7.50;;
13951;SDS011;39535;52.192;9.886;2023-06-10T11:54:35;7.57;;;6.90;;
13951;SDS011;39535;52.192;9.886;2023-06-10T11:57:02;7.77;;;7.20;;
13951;SDS011;39535;52.192;9.886;2023-06-10T11:59:29;7.83;;;7.30;;
13951;SDS011;39535;52.192;9.886;2023-06-10T12:01:56;8.00;;;7.40;;
13951;SDS011;39535;52.192;9.886;2023-06-10T12:04:24;7.97;;;7.37;;
13951;SDS011;39535;52.192;9.886;2023-06-10T12:06:51;8.53;;;7.70;;
13951;SDS011;39535;52.192;9.886;2023-06-10T12:09:19;7.70;;;7.20;;
13951;SDS011;39535;52.192;9.886;2023-06-10T12:11:48;8.13;;;7.63;;
13951;SDS011;39535;52.192;9.886;2023-06-10T12:14:15;8.33;;;7.63;;
13951;SDS011;39535;52.192;9.886;2023-06-10T12:16:47;7.57;;;7.07;;
13951;SDS011;39535;52.192;9.886;2023-06-10T12:19:14;8.10;;;7.40;;
13951;SDS011;39535;52.192;9.886;2023-06-10T12:21:42;7.90;;;7.17;;
13951;SDS011;39535;52.192;9.886;2023-06-10T12:24:10;7.40;;;6.90;;
13951;SDS011;39535;52.192;9.886;2023-06-10T12:26:37;8.33;;;7.63;;
13951;SDS011;39535;52.192;9.886;2023-06-10T12:29:15;8.37;;;7.70;;
13951;SDS011;39535;52.192;9.886;2023-06-10T12:31:57;8.60;;;7.90;;
13951;SDS011;39535;52.192;9.886;2023-06-10T12:34:29;8.40;;;7.60;;
13951;SDS011;39535;52.192;9.886;2023-06-10T12:36:57;8.27;;;7.73;;
13951;SDS011;39535;52.192;9.886;2023-06-10T12:39:24;8.00;;;7.40;;
13951;SDS011;39535;52.192;9.886;2023-06-10T12:41:50;9.07;;;8.43;;
13951;SDS011;39535;52.192;9.886;2023-06-10T12:44:17;8.83;;;8.13;;
13951;SDS011;39535;52.192;9.886;2023-06-10T12:46:44;9.17;;;8.43;;
13951;SDS011;39535;52.192;9.886;2023-06-10T12:49:18;9.63;;;8.53;;
13951;SDS011;39535;52.192;9.886;2023-06-10T12:51:45;9.07;;;8.40;;
13951;SDS011;39535;52.192;9.886;2023-06-10T12:54:12;8.43;;;7.83;;
13951;SDS011;39535;52.192;9.886;2023-06-10T12:56:39;9.23;;;8.60;;
13951;SDS011;39535;52.192;9.886;2023-06-10T12:59:05;9.00;;;8.30;;
13951;SDS011;39535;52.192;9.886;2023-06-10T13:01:32;10.00;;;9.30;;
13951;SDS011;39535;52.192;9.886;2023-06-10T13:03:58;9.57;;;8.87;;
13951;SDS011;39535;52.192;9.886;2023-06-10T13:06:25;8.67;;;7.97;;
13951;SDS011;39535;52.192;9.886;2023-06-10T13:08:51;8.70;;;8.10;;
13951;SDS011;39535;52.192;9.886;2023-06-10T13:11:19;10.70;;;8.10;;
13951;SDS011;39535;52.192;9.886;2023-06-10T13:13:45;9.10;;;8.40;;
13951;SDS011;39535;52.192;9.886;2023-06-10T13:16:12;9.00;;;8.50;;
13951;SDS011;39535;52.192;9.886;2023-06-10T13:18:38;8.90;;;8.30;;
13951;SDS011;39535;52.192;9.886;2023-06-10T13:21:04;8.73;;;8.23;;
13951;SDS011;39535;52.192;9.886;2023-06-10T13:23:31;9.27;;;8.50;;
13951;SDS011;39535;52.192;9.886;2023-06-10T13:25:57;9.07;;;8.47;;
13951;SDS011;39535;52.192;9.886;2023-06-10T13:28:25;9.23;;;8.43;;
13951;SDS011;39535;52.192;9.886;2023-06-10T13:30:53;8.20;;;7.67;;
13951;SDS011;39535;52.192;9.886;2023-06-10T13:33:20;9.63;;;8.87;;
13951;SDS011;39535;52.192;9.886;2023-06-10T13:35:46;8.37;;;7.77;;
13951;SDS011;39535;52.192;9.886;2023-06-10T13:38:12;8.60;;;8.00;;
13951;SDS011;39535;52.192;9.886;2023-06-10T13:40:39;8.50;;;8.00;;
13951;SDS011;39535;52.192;9.886;2023-06-10T13:43:05;8.67;;;8.07;;
13951;SDS011;39535;52.192;9.886;2023-06-10T13:45:33;8.87;;;8.27;;
13951;SDS011;39535;52.192;9.886;2023-06-10T13:47:59;8.67;;;7.97;;
13951;SDS011;39535;52.192;9.886;2023-06-10T13:50:26;8.20;;;7.60;;
13951;SDS011;39535;52.192;9.886;2023-06-10T13:52:52;8.10;;;7.57;;
13951;SDS011;39535;52.192;9.886;2023-06-10T13:55:19;8.00;;;7.50;;
13951;SDS011;39535;52.192;9.886;2023-06-10T13:57:45;8.70;;;8.20;;
13951;SDS011;39535;52.192;9.886;2023-06-10T14:00:12;8.57;;;8.00;;
13951;SDS011;39535;52.192;9.886;2023-06-10T14:02:40;8.90;;;8.30;;
13951;SDS011;39535;52.192;9.886;2023-06-10T14:05:07;8.77;;;8.27;;
13951;SDS011;39535;52.192;9.886;2023-06-10T14:07:33;9.13;;;8.53;;
13951;SDS011;39535;52.192;9.886;2023-06-10T14:10:00;10.00;;;9.40;;
13951;SDS011;39535;52.192;9.886;2023-06-10T14:12:26;8.90;;;8.40;;
13951;SDS011;39535;52.192;9.886;2023-06-10T14:14:52;8.30;;;7.80;;
13951;SDS011;39535;52.192;9.886;2023-06-10T14:17:19;8.37;;;7.87;;
13951;SDS011;39535;52.192;9.886;2023-06-10T14:19:46;7.47;;;7.00;;
13951;SDS011;39535;52.192;9.886;2023-06-10T14:22:13;8.90;;;8.10;;
13951;SDS011;39535;52.192;9.886;2023-06-10T14:24:39;9.00;;;8.40;;
13951;SDS011;39535;52.192;9.886;2023-06-10T14:27:06;8.40;;;7.87;;
13951;SDS011;39535;52.192;9.886;2023-06-10T14:29:32;8.07;;;7.57;;
13951;SDS011;39535;52.192;9.886;2023-06-10T14:32:00;8.57;;;7.97;;
13951;SDS011;39535;52.192;9.886;2023-06-10T14:34:26;8.47;;;7.77;;
13951;SDS011;39535;52.192;9.886;2023-06-10T14:36:56;8.47;;;7.87;;
13951;SDS011;39535;52.192;9.886;2023-06-10T14:39:22;8.20;;;7.70;;
13951;SDS011;39535;52.192;9.886;2023-06-10T14:41:48;8.47;;;7.90;;
13951;SDS011;39535;52.192;9.886;2023-06-10T14:44:15;8.47;;;7.97;;
13951;SDS011;39535;52.192;9.886;2023-06-10T14:46:41;8.47;;;7.80;;
13951;SDS011;39535;52.192;9.886;2023-06-10T14:49:07;9.20;;;8.33;;